createdAt,value
2023-03-29T00:00:19.980Z,0.26
2023-03-29T00:03:17.304Z,0.33
2023-03-29T00:05:51.760Z,0.32
2023-03-29T00:08:25.990Z,0.30
2023-03-29T00:11:04.315Z,0.19
2023-03-29T00:13:38.797Z,0.23
2023-03-29T00:16:13.809Z,0.27
2023-03-29T00:18:47.442Z,0.20
2023-03-29T00:21:24.301Z,0.21
2023-03-29T00:23:58.644Z,0.10
2023-03-29T00:26:32.306Z,0.09
2023-03-29T00:29:05.791Z,0.08
2023-03-29T00:31:39.442Z,0.08
2023-03-29T00:34:12.752Z,0.06
2023-03-29T00:36:46.639Z,-0.05
2023-03-29T00:39:21.249Z,0.05
2023-03-29T00:41:55.904Z,0.02
2023-03-29T00:45:04.928Z,0.02
2023-03-29T00:47:47.389Z,0.06
2023-03-29T00:50:31.554Z,0.00
2023-03-29T00:53:10.510Z,0.05
2023-03-29T00:56:14.658Z,-0.01
2023-03-29T00:59:03.080Z,-0.02
2023-03-29T01:01:45.874Z,-0.03
2023-03-29T01:04:37.543Z,-0.03
2023-03-29T01:07:36.005Z,0.03
2023-03-29T01:10:25.471Z,0.04
2023-03-29T01:13:10.082Z,0.04
2023-03-29T01:15:47.512Z,0.01
2023-03-29T01:18:22.853Z,0.01
2023-03-29T01:21:21.026Z,0.04
2023-03-29T01:24:10.223Z,0.04
2023-03-29T01:26:47.351Z,0.02
2023-03-29T01:29:54.996Z,0.06
2023-03-29T01:32:48.572Z,0.07
2023-03-29T01:35:43.211Z,0.05
2023-03-29T01:38:28.642Z,-0.05
2023-03-29T01:41:04.178Z,-0.00
2023-03-29T01:43:45.195Z,0.08
2023-03-29T01:46:38.366Z,0.04
2023-03-29T01:49:30.170Z,-0.02
2023-03-29T01:52:13.466Z,-0.15
2023-03-29T01:55:01.936Z,0.06
2023-03-29T01:57:36.696Z,0.01
2023-03-29T02:00:13.222Z,0.04
2023-03-29T02:02:49.951Z,0.04
2023-03-29T02:05:27.401Z,0.10
2023-03-29T02:08:06.673Z,0.16
2023-03-29T02:10:40.475Z,0.17
2023-03-29T02:13:14.272Z,0.17
2023-03-29T02:15:51.448Z,0.34
2023-03-29T02:18:25.292Z,0.37
2023-03-29T02:21:00.074Z,0.44
2023-03-29T02:23:49.651Z,0.57
2023-03-29T02:26:24.914Z,0.65
2023-03-29T02:28:58.800Z,0.58
2023-03-29T02:31:59.841Z,0.77
2023-03-29T02:34:38.177Z,0.73
2023-03-29T02:37:16.633Z,0.79
2023-03-29T02:39:53.469Z,0.79
2023-03-29T02:42:28.807Z,0.82
2023-03-29T02:45:04.419Z,0.85
2023-03-29T02:47:43.758Z,0.84
2023-03-29T02:50:17.772Z,0.93
2023-03-29T02:53:02.383Z,0.96
2023-03-29T02:55:37.075Z,1.01
2023-03-29T02:58:11.586Z,1.01
2023-03-29T03:00:51.346Z,0.95
2023-03-29T03:03:26.171Z,0.86
2023-03-29T03:06:02.332Z,0.85
2023-03-29T03:08:37.107Z,0.70
2023-03-29T03:11:10.950Z,0.61
2023-03-29T03:13:44.834Z,0.66
2023-03-29T03:16:18.734Z,0.52
2023-03-29T03:18:54.633Z,0.48
2023-03-29T03:21:30.392Z,0.54
2023-03-29T03:24:08.597Z,0.44
2023-03-29T03:26:42.442Z,0.31
2023-03-29T03:29:16.929Z,0.29
2023-03-29T03:32:19.473Z,0.27
2023-03-29T03:34:57.020Z,0.37
2023-03-29T03:37:32.014Z,0.40
2023-03-29T03:40:11.349Z,0.41
2023-03-29T03:42:45.053Z,0.46
2023-03-29T03:45:19.470Z,0.40
2023-03-29T03:48:10.433Z,0.33
2023-03-29T03:50:57.004Z,0.43
2023-03-29T03:53:31.867Z,0.41
2023-03-29T03:56:30.404Z,0.43
2023-03-29T03:59:24.665Z,0.31
2023-03-29T04:02:14.203Z,0.31
2023-03-29T04:04:50.323Z,0.28
2023-03-29T04:07:26.278Z,0.31
2023-03-29T04:10:17.013Z,0.28
2023-03-29T04:13:09.196Z,0.27
2023-03-29T04:15:55.019Z,0.22
2023-03-29T04:18:28.927Z,0.16
2023-03-29T04:21:05.546Z,0.13
2023-03-29T04:23:39.703Z,0.05
2023-03-29T04:26:13.103Z,0.00
2023-03-29T04:28:46.830Z,0.03
2023-03-29T04:31:29.996Z,-0.03
2023-03-29T04:34:15.929Z,0.09
2023-03-29T04:36:53.944Z,0.11
2023-03-29T04:39:36.687Z,0.15
2023-03-29T04:42:12.166Z,0.14
2023-03-29T04:44:46.319Z,0.18
2023-03-29T04:47:23.791Z,0.18
2023-03-29T04:50:02.288Z,0.21
2023-03-29T04:52:45.917Z,0.25
2023-03-29T04:55:19.670Z,0.28
2023-03-29T04:58:23.081Z,0.33
2023-03-29T05:01:01.880Z,0.31
2023-03-29T05:03:42.552Z,0.45
2023-03-29T05:06:25.705Z,0.49
2023-03-29T05:08:59.636Z,0.63
2023-03-29T05:11:40.387Z,0.69
2023-03-29T05:14:14.647Z,0.86
2023-03-29T05:16:48.433Z,1.05
2023-03-29T05:19:22.566Z,1.22
2023-03-29T05:21:56.259Z,1.35
2023-03-29T05:24:30.404Z,1.24
2023-03-29T05:27:09.284Z,1.43
2023-03-29T05:29:43.172Z,1.46
2023-03-29T05:32:41.273Z,1.43
2023-03-29T05:35:15.834Z,1.48
2023-03-29T05:37:52.310Z,1.47
2023-03-29T05:40:26.722Z,1.43
2023-03-29T05:43:22.355Z,1.46
2023-03-29T05:45:58.517Z,1.38
2023-03-29T05:48:33.107Z,1.36
2023-03-29T05:51:06.308Z,1.38
2023-03-29T05:53:39.504Z,1.44
2023-03-29T05:56:16.983Z,1.38
2023-03-29T05:58:54.971Z,1.50
2023-03-29T06:01:29.286Z,1.56
2023-03-29T06:04:10.139Z,1.56
2023-03-29T06:06:49.199Z,1.52
2023-03-29T06:09:23.462Z,1.69
2023-03-29T06:12:14.741Z,1.55
2023-03-29T06:14:58.900Z,1.52
2023-03-29T06:17:37.768Z,1.66
2023-03-29T06:20:12.345Z,1.71
2023-03-29T06:22:48.486Z,1.77
2023-03-29T06:25:21.966Z,1.67
2023-03-29T06:27:56.313Z,1.78
2023-03-29T06:30:29.933Z,1.85
2023-03-29T06:33:03.627Z,1.87
2023-03-29T06:35:58.214Z,2.02
2023-03-29T06:38:34.352Z,2.01
2023-03-29T06:41:29.747Z,2.04
2023-03-29T06:44:13.993Z,2.10
2023-03-29T06:47:00.010Z,2.08
2023-03-29T06:49:33.114Z,2.04
2023-03-29T06:52:27.632Z,1.94
2023-03-29T06:55:02.290Z,2.06
2023-03-29T06:57:35.388Z,2.05
2023-03-29T07:00:20.355Z,2.03
2023-03-29T07:03:27.038Z,2.01
2023-03-29T07:06:13.050Z,2.12
2023-03-29T07:08:47.789Z,2.23
2023-03-29T07:11:27.229Z,2.18
2023-03-29T07:14:03.896Z,2.21
2023-03-29T07:16:38.328Z,2.31
2023-03-29T07:19:24.648Z,2.45
2023-03-29T07:21:59.176Z,2.59
2023-03-29T07:24:44.568Z,2.76
2023-03-29T07:27:18.760Z,2.99
2023-03-29T07:29:54.718Z,3.07
2023-03-29T07:32:29.302Z,3.37
2023-03-29T07:35:18.449Z,3.56
2023-03-29T07:37:53.114Z,3.65
2023-03-29T07:40:27.751Z,3.67
2023-03-29T07:43:09.732Z,3.80
2023-03-29T07:45:45.998Z,3.55
2023-03-29T07:48:20.592Z,3.42
2023-03-29T07:51:00.083Z,3.37
2023-03-29T07:53:43.599Z,3.33
2023-03-29T07:56:37.658Z,3.20
2023-03-29T07:59:52.248Z,3.27
2023-03-29T08:02:29.683Z,3.36
2023-03-29T08:05:05.658Z,3.50
2023-03-29T08:07:54.570Z,3.65
2023-03-29T08:10:43.772Z,3.53
2023-03-29T08:13:25.254Z,3.52
2023-03-29T08:16:22.939Z,3.51
2023-03-29T08:19:03.635Z,3.36
2023-03-29T08:21:54.724Z,3.48
2023-03-29T08:24:30.304Z,3.71
2023-03-29T08:27:07.492Z,4.01
2023-03-29T08:29:42.153Z,4.23
2023-03-29T08:32:15.836Z,4.11
2023-03-29T08:34:49.403Z,4.34
2023-03-29T08:37:35.120Z,4.46
2023-03-29T08:40:09.039Z,4.50
2023-03-29T08:43:04.637Z,4.77
2023-03-29T08:46:11.626Z,5.01
2023-03-29T08:48:54.527Z,5.10
2023-03-29T08:51:43.139Z,4.99
2023-03-29T08:54:27.580Z,5.12
2023-03-29T08:57:28.960Z,5.38
2023-03-29T09:00:11.085Z,4.99
2023-03-29T09:02:48.003Z,5.22
2023-03-29T09:05:35.478Z,5.39
2023-03-29T09:08:28.158Z,5.56
2023-03-29T09:11:34.000Z,5.55
2023-03-29T09:14:16.259Z,5.11
2023-03-29T09:17:01.677Z,4.69
2023-03-29T09:19:44.998Z,4.47
2023-03-29T09:22:25.243Z,3.96
2023-03-29T09:25:25.583Z,3.83
2023-03-29T09:28:15.962Z,3.76
2023-03-29T09:31:28.105Z,3.61
2023-03-29T09:34:06.495Z,3.55
2023-03-29T09:37:13.712Z,3.58
2023-03-29T09:39:47.686Z,3.72
2023-03-29T09:42:22.400Z,3.89
2023-03-29T09:44:59.517Z,3.99
2023-03-29T09:47:55.030Z,4.22
2023-03-29T09:50:38.638Z,4.44
2023-03-29T09:53:15.808Z,4.65
2023-03-29T09:55:54.367Z,4.70
2023-03-29T09:58:58.533Z,4.86
2023-03-29T10:01:41.938Z,5.08
2023-03-29T10:04:17.603Z,5.36
2023-03-29T10:06:57.378Z,5.29
2023-03-29T10:09:33.091Z,4.81
2023-03-29T10:12:19.670Z,4.42
2023-03-29T10:14:56.313Z,4.39
2023-03-29T10:17:34.135Z,4.48
2023-03-29T10:20:10.232Z,4.39
2023-03-29T10:22:56.986Z,4.50
2023-03-29T10:25:33.496Z,4.85
2023-03-29T10:28:17.984Z,4.59
2023-03-29T10:30:57.481Z,4.91
2023-03-29T10:33:38.470Z,5.34
2023-03-29T10:36:14.636Z,5.47
2023-03-29T10:38:48.294Z,5.35
2023-03-29T10:41:24.507Z,5.18
2023-03-29T10:43:57.609Z,4.80
2023-03-29T10:46:45.065Z,4.59
2023-03-29T10:49:22.500Z,4.65
2023-03-29T10:51:55.778Z,4.98
2023-03-29T10:54:29.488Z,5.03
2023-03-29T10:57:09.073Z,4.81
2023-03-29T10:59:49.457Z,4.44
2023-03-29T11:02:48.335Z,4.65
2023-03-29T11:06:04.720Z,4.94
2023-03-29T11:08:37.279Z,5.36
2023-03-29T11:11:25.093Z,5.55
2023-03-29T11:14:05.493Z,5.66
2023-03-29T11:17:00.419Z,5.70
2023-03-29T11:19:36.707Z,5.54
2023-03-29T11:22:30.565Z,5.28
2023-03-29T11:25:16.182Z,5.01
2023-03-29T11:28:01.301Z,5.14
2023-03-29T11:30:44.436Z,5.21
2023-03-29T11:33:39.472Z,5.11
2023-03-29T11:36:39.549Z,5.18
2023-03-29T11:39:26.557Z,5.19
2023-03-29T11:42:11.702Z,4.77
2023-03-29T11:44:47.077Z,4.84
2023-03-29T11:47:32.066Z,5.08
2023-03-29T11:50:26.985Z,4.86
2023-03-29T11:53:10.708Z,4.93
2023-03-29T11:55:45.793Z,5.19
2023-03-29T11:58:31.676Z,5.57
2023-03-29T12:01:16.595Z,5.82
2023-03-29T12:04:09.448Z,5.97
2023-03-29T12:06:51.770Z,6.11
2023-03-29T12:09:40.830Z,5.93
2023-03-29T12:12:44.059Z,5.91
2023-03-29T12:15:33.565Z,5.79
2023-03-29T12:18:24.980Z,5.54
2023-03-29T12:21:04.374Z,5.23
2023-03-29T12:23:40.318Z,5.10
2023-03-29T12:26:41.142Z,5.22
2023-03-29T12:29:42.648Z,5.04
2023-03-29T12:32:39.419Z,5.01
2023-03-29T12:35:53.445Z,5.31
2023-03-29T12:39:03.738Z,5.78
2023-03-29T12:42:19.911Z,5.87
2023-03-29T12:45:36.951Z,5.60
2023-03-29T12:48:17.503Z,5.62
2023-03-29T12:50:54.594Z,6.01
2023-03-29T12:53:43.997Z,6.08
2023-03-29T12:56:19.428Z,5.99
2023-03-29T12:59:12.916Z,5.94
2023-03-29T13:02:06.378Z,6.02
2023-03-29T13:05:02.602Z,6.05
2023-03-29T13:07:47.759Z,6.22
2023-03-29T13:10:42.835Z,6.56
2023-03-29T13:13:25.254Z,6.34
2023-03-29T13:16:11.550Z,6.62
2023-03-29T13:19:01.936Z,5.91
2023-03-29T13:21:56.552Z,5.13
2023-03-29T13:24:54.425Z,4.90
2023-03-29T13:28:02.513Z,4.52
2023-03-29T13:31:08.958Z,4.33
2023-03-29T13:34:15.724Z,4.03
2023-03-29T13:36:57.520Z,3.84
2023-03-29T13:39:53.569Z,3.72
2023-03-29T13:42:37.728Z,3.53
2023-03-29T13:45:26.025Z,3.65
2023-03-29T13:48:26.520Z,3.76
2023-03-29T13:51:28.595Z,3.84
2023-03-29T13:54:22.860Z,3.65
2023-03-29T13:57:22.185Z,3.79
2023-03-29T14:00:07.975Z,4.09
2023-03-29T14:02:58.501Z,4.28
2023-03-29T14:05:33.767Z,4.38
2023-03-29T14:08:35.427Z,4.49
2023-03-29T14:11:21.987Z,4.57
2023-03-29T14:14:00.301Z,4.78
2023-03-29T14:16:37.451Z,4.89
2023-03-29T14:19:34.207Z,4.98
2023-03-29T14:22:18.457Z,4.96
2023-03-29T14:24:59.305Z,4.79
2023-03-29T14:27:34.217Z,4.95
2023-03-29T14:30:23.060Z,4.89
2023-03-29T14:32:57.273Z,4.56
2023-03-29T14:35:35.744Z,4.54
2023-03-29T14:38:14.048Z,4.57
2023-03-29T14:40:48.324Z,4.80
2023-03-29T14:43:24.601Z,4.82
2023-03-29T14:45:58.046Z,4.95
2023-03-29T14:48:33.788Z,4.90
2023-03-29T14:51:07.791Z,4.69
2023-03-29T14:53:43.198Z,4.81
2023-03-29T14:56:22.256Z,4.55
2023-03-29T14:58:59.367Z,4.58
2023-03-29T15:01:32.772Z,4.74
2023-03-29T15:04:09.795Z,4.74
2023-03-29T15:06:47.426Z,4.58
2023-03-29T15:09:32.578Z,4.40
2023-03-29T15:12:06.291Z,4.36
2023-03-29T15:14:39.669Z,4.08
2023-03-29T15:17:39.444Z,4.12
2023-03-29T15:20:39.010Z,4.06
2023-03-29T15:23:24.793Z,4.08
2023-03-29T15:26:00.254Z,3.72
2023-03-29T15:28:48.109Z,3.57
2023-03-29T15:31:23.964Z,3.28
2023-03-29T15:34:15.316Z,3.35
2023-03-29T15:36:48.820Z,3.16
2023-03-29T15:39:23.279Z,2.87
2023-03-29T15:41:57.901Z,2.93
2023-03-29T15:44:36.061Z,2.74
2023-03-29T15:47:17.305Z,2.86
2023-03-29T15:49:50.256Z,3.02
2023-03-29T15:52:23.282Z,2.94
2023-03-29T15:54:55.954Z,2.95
2023-03-29T15:57:29.266Z,3.00
2023-03-29T16:00:03.368Z,2.81
2023-03-29T16:02:47.005Z,2.81
2023-03-29T16:05:22.333Z,2.87
2023-03-29T16:07:56.024Z,2.91
2023-03-29T16:10:31.515Z,2.85
2023-03-29T16:13:05.413Z,2.87
2023-03-29T16:15:39.636Z,2.81
2023-03-29T16:18:13.306Z,2.72
2023-03-29T16:20:47.230Z,2.71
2023-03-29T16:23:21.371Z,2.66
2023-03-29T16:25:55.041Z,2.70
2023-03-29T16:28:29.097Z,2.66
2023-03-29T16:31:02.795Z,2.70
2023-03-29T16:33:36.328Z,2.59
2023-03-29T16:36:12.126Z,2.59
2023-03-29T16:38:45.447Z,2.57
2023-03-29T16:41:19.331Z,2.58
2023-03-29T16:43:53.327Z,2.57
2023-03-29T16:46:27.660Z,2.41
2023-03-29T16:49:01.082Z,2.36
2023-03-29T16:51:34.237Z,2.28
2023-03-29T16:54:08.144Z,2.28
2023-03-29T16:56:41.528Z,2.24
2023-03-29T16:59:14.731Z,2.20
2023-03-29T17:01:47.878Z,2.15
2023-03-29T17:04:21.534Z,2.21
2023-03-29T17:06:55.456Z,2.22
2023-03-29T17:09:29.938Z,2.20
2023-03-29T17:12:03.820Z,2.19
2023-03-29T17:14:38.131Z,2.19
2023-03-29T17:17:12.531Z,2.17
2023-03-29T17:19:46.204Z,2.05
2023-03-29T17:22:19.700Z,2.10
2023-03-29T17:24:53.284Z,2.09
2023-03-29T17:27:27.526Z,2.13
2023-03-29T17:30:01.283Z,2.14
2023-03-29T17:32:36.259Z,2.20
2023-03-29T17:35:10.472Z,2.24
2023-03-29T17:37:44.513Z,2.22
2023-03-29T17:40:18.596Z,2.25
2023-03-29T17:42:53.188Z,2.32
2023-03-29T17:45:27.582Z,2.29
2023-03-29T17:48:04.097Z,2.38
2023-03-29T17:50:39.224Z,2.34
2023-03-29T17:53:14.028Z,2.38
2023-03-29T17:55:47.962Z,2.35
2023-03-29T17:58:23.182Z,2.28
2023-03-29T18:00:56.590Z,2.31
2023-03-29T18:03:35.108Z,2.24
2023-03-29T18:06:09.542Z,2.20
2023-03-29T18:08:43.048Z,2.22
2023-03-29T18:11:25.394Z,2.22
2023-03-29T18:14:01.998Z,2.24
2023-03-29T18:16:35.240Z,2.29
2023-03-29T18:19:08.763Z,2.34
2023-03-29T18:21:42.221Z,2.34
2023-03-29T18:24:16.900Z,2.42
2023-03-29T18:26:51.110Z,2.37
2023-03-29T18:29:25.098Z,2.36
2023-03-29T18:32:05.174Z,2.36
2023-03-29T18:34:39.666Z,2.36
2023-03-29T18:37:16.722Z,2.37
2023-03-29T18:39:50.989Z,2.36
2023-03-29T18:42:24.612Z,2.32
2023-03-29T18:44:57.613Z,2.31
2023-03-29T18:47:31.458Z,2.29
2023-03-29T18:50:06.340Z,2.38
2023-03-29T18:52:40.573Z,2.41
2023-03-29T18:55:14.647Z,2.44
2023-03-29T18:57:48.428Z,2.41
2023-03-29T19:00:23.026Z,2.50
2023-03-29T19:02:56.883Z,2.48
2023-03-29T19:05:32.020Z,2.48
2023-03-29T19:08:06.340Z,2.55
2023-03-29T19:10:40.544Z,2.51
2023-03-29T19:13:13.393Z,2.51
2023-03-29T19:15:48.229Z,2.46
2023-03-29T19:18:21.485Z,2.56
2023-03-29T19:20:57.737Z,2.56
2023-03-29T19:23:31.336Z,2.59
2023-03-29T19:26:09.158Z,2.59
2023-03-29T19:28:43.276Z,2.59
2023-03-29T19:31:16.849Z,2.59
2023-03-29T19:33:50.622Z,2.60
2023-03-29T19:36:24.256Z,2.61
2023-03-29T19:38:57.393Z,2.51
2023-03-29T19:41:31.482Z,2.65
2023-03-29T19:44:06.092Z,2.60
2023-03-29T19:46:39.832Z,2.68
2023-03-29T19:49:16.071Z,2.64
2023-03-29T19:51:49.436Z,2.60
2023-03-29T19:54:22.732Z,2.60
2023-03-29T19:56:57.844Z,2.58
2023-03-29T19:59:32.005Z,2.44
2023-03-29T20:02:05.277Z,2.44
2023-03-29T20:04:38.417Z,2.42
2023-03-29T20:07:11.823Z,2.34
2023-03-29T20:09:45.437Z,2.21
2023-03-29T20:12:19.258Z,2.05
2023-03-29T20:14:53.227Z,1.97
2023-03-29T20:17:32.980Z,1.92
2023-03-29T20:20:09.936Z,1.91
2023-03-29T20:22:46.109Z,1.87
2023-03-29T20:25:19.885Z,1.81
2023-03-29T20:27:53.936Z,1.71
2023-03-29T20:30:27.621Z,1.70
2023-03-29T20:33:01.388Z,1.76
2023-03-29T20:35:35.642Z,1.68
2023-03-29T20:38:09.321Z,1.74
2023-03-29T20:40:43.426Z,1.85
2023-03-29T20:43:20.851Z,1.95
2023-03-29T20:45:55.903Z,1.99
2023-03-29T20:48:32.629Z,2.03
2023-03-29T20:51:11.123Z,2.08
2023-03-29T20:53:44.514Z,2.16
2023-03-29T20:56:19.572Z,2.18
2023-03-29T20:58:56.254Z,2.30
2023-03-29T21:01:30.601Z,2.32
2023-03-29T21:04:05.184Z,2.43
2023-03-29T21:06:42.069Z,2.43
2023-03-29T21:09:15.809Z,2.52
2023-03-29T21:11:49.572Z,2.54
2023-03-29T21:14:23.335Z,2.51
2023-03-29T21:16:56.775Z,2.60
2023-03-29T21:19:30.061Z,2.56
2023-03-29T21:22:02.997Z,2.66
2023-03-29T21:24:36.972Z,2.64
2023-03-29T21:27:10.155Z,2.57
2023-03-29T21:29:43.285Z,2.63
2023-03-29T21:32:16.431Z,2.66
2023-03-29T21:34:49.765Z,2.57
2023-03-29T21:37:22.935Z,2.64
2023-03-29T21:39:56.020Z,2.70
2023-03-29T21:42:29.051Z,2.72
2023-03-29T21:45:02.450Z,2.75
2023-03-29T21:47:35.741Z,2.71
2023-03-29T21:50:09.905Z,2.72
2023-03-29T21:52:43.286Z,2.82
2023-03-29T21:55:17.073Z,2.75
2023-03-29T21:57:51.710Z,2.81
2023-03-29T22:00:25.664Z,2.78
2023-03-29T22:02:59.049Z,2.69
2023-03-29T22:05:33.536Z,2.66
2023-03-29T22:08:11.298Z,2.65
2023-03-29T22:10:45.376Z,2.70
2023-03-29T22:13:19.255Z,2.70
2023-03-29T22:16:01.141Z,2.71
2023-03-29T22:18:49.847Z,2.72
2023-03-29T22:21:25.082Z,2.72
2023-03-29T22:24:00.176Z,2.73
2023-03-29T22:26:34.554Z,2.72
2023-03-29T22:29:07.843Z,2.72
2023-03-29T22:31:41.940Z,2.75
2023-03-29T22:34:15.734Z,2.78
2023-03-29T22:36:49.645Z,2.77
2023-03-29T22:39:23.096Z,2.78
2023-03-29T22:41:56.875Z,2.74
2023-03-29T22:44:30.687Z,2.76
2023-03-29T22:47:03.710Z,2.71
2023-03-29T22:49:37.231Z,2.75
2023-03-29T22:52:10.498Z,2.76
2023-03-29T22:54:43.455Z,2.74
2023-03-29T22:57:17.292Z,2.67
2023-03-29T22:59:50.349Z,2.70
2023-03-29T23:02:23.539Z,2.68
2023-03-29T23:04:56.618Z,2.62
2023-03-29T23:07:30.507Z,2.63
2023-03-29T23:10:04.579Z,2.66
2023-03-29T23:12:38.038Z,2.65
2023-03-29T23:15:12.049Z,2.56
2023-03-29T23:17:45.180Z,2.63
2023-03-29T23:20:18.318Z,2.59
2023-03-29T23:22:52.043Z,2.52
2023-03-29T23:25:27.363Z,2.40
2023-03-29T23:28:01.393Z,2.34
2023-03-29T23:30:38.700Z,2.40
2023-03-29T23:33:15.617Z,2.38
2023-03-29T23:35:49.433Z,2.35
2023-03-29T23:38:24.851Z,2.32
2023-03-29T23:41:01.284Z,2.40
2023-03-29T23:43:37.842Z,2.42
2023-03-29T23:46:13.642Z,2.38
2023-03-29T23:48:50.758Z,2.34
2023-03-29T23:51:29.190Z,2.29
2023-03-29T23:54:02.886Z,2.24
2023-03-29T23:56:36.090Z,2.22
2023-03-29T23:59:09.462Z,2.16
